Time;durP1;ratioP1;P1;durP2;ratioP2;P2;SDS_P1;SDS_P2;PMS_P1;PMS_P2;Temp;Humidity;BMP_temperature;BMP_pressure;BME280_temperature;BME280_humidity;BME280_pressure;Samples;Min_cycle;Max_cycle;Signal;HPM_P1;HPM_P2
2023/02/05 00:02:11;;;;;;;4.15;2.20;;;16.00;63.20;;;;;;5034786;28;20022;-75
2023/02/05 00:04:37;;;;;;;2.55;2.25;;;16.00;63.20;;;;;;5035067;28;20041;-75
2023/02/05 00:07:03;;;;;;;4.75;2.40;;;16.00;63.20;;;;;;5034966;28;20026;-75
2023/02/05 00:09:29;;;;;;;2.45;2.25;;;16.00;63.20;;;;;;5034887;28;20037;-75
2023/02/05 00:11:56;;;;;;;3.22;2.78;;;16.00;63.10;;;;;;5034823;28;20065;-75
2023/02/05 00:14:22;;;;;;;4.15;2.85;;;16.00;63.20;;;;;;5034756;28;20059;-75
2023/02/05 00:16:48;;;;;;;5.03;2.80;;;16.00;63.20;;;;;;5034888;28;20025;-75
2023/02/05 00:19:14;;;;;;;3.58;2.70;;;16.00;63.10;;;;;;5034676;28;20039;-75
2023/02/05 00:21:39;;;;;;;4.90;3.00;;;16.00;63.10;;;;;;5034718;28;20176;-75
2023/02/05 00:24:05;;;;;;;2.55;2.15;;;16.00;63.10;;;;;;5034511;28;20030;-75
2023/02/05 00:26:31;;;;;;;4.00;2.47;;;16.00;63.10;;;;;;5034856;28;20029;-75
2023/02/05 00:28:56;;;;;;;2.47;2.10;;;16.00;63.00;;;;;;5034437;28;20072;-75
2023/02/05 00:31:22;;;;;;;4.60;2.55;;;16.00;63.10;;;;;;5034462;28;20035;-75
2023/02/05 00:33:49;;;;;;;3.35;2.35;;;16.00;63.00;;;;;;5034466;28;20436;-74
2023/02/05 00:36:16;;;;;;;5.75;2.63;;;16.00;63.10;;;;;;5034471;28;20028;-75
2023/02/05 00:38:43;;;;;;;2.63;2.03;;;16.00;63.00;;;;;;5034434;28;20104;-75
2023/02/05 00:41:10;;;;;;;2.20;2.00;;;16.00;63.00;;;;;;5034347;28;20064;-75
2023/02/05 00:43:35;;;;;;;2.47;2.05;;;16.00;63.10;;;;;;5034336;28;20014;-75
2023/02/05 00:46:01;;;;;;;2.50;2.25;;;16.10;63.20;;;;;;5034330;28;20689;-75
2023/02/05 00:48:27;;;;;;;3.60;2.45;;;16.00;63.10;;;;;;5034191;28;20124;-75
2023/02/05 00:50:53;;;;;;;3.50;2.47;;;16.00;63.10;;;;;;5034242;28;20491;-76
2023/02/05 00:53:20;;;;;;;2.90;2.38;;;16.00;63.10;;;;;;5034135;28;20476;-75
2023/02/05 00:55:45;;;;;;;2.50;1.60;;;16.00;63.10;;;;;;5034406;28;20025;-75
2023/02/05 00:58:11;;;;;;;3.25;2.05;;;16.00;63.00;;;;;;5033952;28;20610;-75
2023/02/05 01:00:38;;;;;;;4.13;2.35;;;16.00;63.70;;;;;;5033852;28;20062;-75
2023/02/05 01:03:04;;;;;;;1.90;1.67;;;16.00;63.10;;;;;;5033563;28;20042;-75
2023/02/05 01:05:29;;;;;;;2.05;1.80;;;16.00;63.00;;;;;;5033870;28;20029;-75
2023/02/05 01:07:55;;;;;;;2.08;1.85;;;16.00;63.10;;;;;;5033845;28;20034;-75
2023/02/05 01:10:21;;;;;;;2.03;1.77;;;16.00;63.20;;;;;;5033707;28;20044;-75
2023/02/05 01:12:48;;;;;;;1.88;1.67;;;16.00;63.20;;;;;;5033809;28;20029;-75
2023/02/05 01:15:14;;;;;;;3.05;1.60;;;16.00;63.20;;;;;;5033751;28;20502;-75
2023/02/05 01:17:40;;;;;;;1.42;1.33;;;16.00;63.10;;;;;;5033600;28;20018;-75
2023/02/05 01:20:07;;;;;;;2.10;1.50;;;16.00;63.10;;;;;;5033621;28;20087;-75
2023/02/05 01:22:33;;;;;;;2.58;1.48;;;16.00;63.10;;;;;;5033493;28;20045;-75
2023/02/05 01:24:58;;;;;;;1.40;1.08;;;16.00;63.20;;;;;;5033577;28;20439;-75
2023/02/05 01:27:24;;;;;;;1.30;1.20;;;16.00;63.20;;;;;;5033468;28;20021;-74
2023/02/05 01:29:50;;;;;;;1.75;1.42;;;16.00;63.10;;;;;;5033392;28;20061;-74
2023/02/05 01:32:16;;;;;;;2.20;1.38;;;16.00;63.10;;;;;;5033456;28;20068;-73
2023/02/05 01:34:42;;;;;;;1.92;1.70;;;16.00;63.10;;;;;;5032693;28;20044;-74
2023/02/05 01:37:08;;;;;;;2.13;1.60;;;16.00;63.10;;;;;;5033295;28;20014;-73
2023/02/05 01:39:35;;;;;;;1.65;1.33;;;16.00;63.20;;;;;;5033220;28;20026;-73
2023/02/05 01:42:00;;;;;;;2.75;1.33;;;16.00;63.20;;;;;;5033187;28;20026;-73
2023/02/05 01:44:29;;;;;;;1.45;1.35;;;16.00;63.10;;;;;;5033116;28;20105;-72
2023/02/05 01:46:55;;;;;;;1.40;1.17;;;16.00;63.20;;;;;;5033108;28;20066;-73
2023/02/05 01:49:26;;;;;;;2.53;1.27;;;16.00;63.20;;;;;;5033012;28;20404;-75
2023/02/05 01:51:55;;;;;;;1.52;1.15;;;16.00;63.20;;;;;;5033117;28;20531;-76
2023/02/05 01:54:24;;;;;;;1.35;1.13;;;16.00;63.20;;;;;;5032998;28;20486;-75
2023/02/05 01:56:59;;;;;;;1.90;1.23;;;16.00;63.80;;;;;;5032876;28;20033;-75
2023/02/05 01:59:28;;;;;;;1.27;1.17;;;16.00;63.20;;;;;;5032947;28;20030;-75
2023/02/05 02:01:54;;;;;;;1.25;0.93;;;16.00;63.10;;;;;;5032679;28;20529;-76
2023/02/05 02:04:43;;;;;;;1.50;1.08;;;16.00;63.20;;;;;;5032728;28;20045;-75
2023/02/05 02:07:12;;;;;;;1.52;1.00;;;16.00;63.20;;;;;;5032839;28;20029;-73
2023/02/05 02:09:41;;;;;;;1.17;1.00;;;16.00;63.20;;;;;;5032666;28;20040;-73
2023/02/05 02:12:09;;;;;;;1.10;1.00;;;16.00;63.20;;;;;;5032699;28;20048;-73
2023/02/05 02:14:37;;;;;;;1.60;0.93;;;16.00;63.20;;;;;;5032599;28;20021;-73
2023/02/05 02:17:04;;;;;;;1.30;1.05;;;16.00;63.20;;;;;;5032647;28;20060;-73
2023/02/05 02:19:51;;;;;;;1.60;1.20;;;16.00;63.20;;;;;;5032605;28;20018;-73
2023/02/05 02:22:31;;;;;;;3.50;1.17;;;16.00;63.20;;;;;;5032564;28;20096;-73
2023/02/05 02:25:02;;;;;;;;;;;16.00;63.20;;;;;;5032891;28;20033;-75
2023/02/05 02:27:46;;;;;;;1.10;0.88;;;15.90;63.10;;;;;;5032571;28;20039;-75
2023/02/05 02:30:17;;;;;;;1.10;0.63;;;16.00;63.20;;;;;;5032480;28;20040;-75
2023/02/05 02:33:03;;;;;;;1.52;0.88;;;16.00;63.20;;;;;;5032308;28;20022;-75
2023/02/05 02:36:06;;;;;;;1.77;0.85;;;15.90;63.10;;;;;;5032413;28;20026;-75
2023/02/05 02:38:42;;;;;;;1.50;0.80;;;16.00;63.10;;;;;;5032316;28;20100;-75
2023/02/05 02:41:25;;;;;;;1.23;0.90;;;16.00;63.20;;;;;;5032361;28;20026;-76
2023/02/05 02:43:56;;;;;;;1.63;0.88;;;16.00;63.20;;;;;;5032336;28;20145;-73
2023/02/05 02:46:28;;;;;;;1.17;0.80;;;16.00;63.20;;;;;;5031743;28;20021;-73
2023/02/05 02:48:56;;;;;;;1.27;0.80;;;16.00;63.10;;;;;;5032090;28;20029;-73
2023/02/05 02:51:25;;;;;;;1.10;0.70;;;15.90;63.10;;;;;;5032207;28;20476;-73
2023/02/05 02:53:55;;;;;;;1.00;0.90;;;16.00;63.20;;;;;;5032092;28;20024;-73
2023/02/05 02:56:23;;;;;;;1.13;0.65;;;15.90;63.10;;;;;;5032195;28;20030;-73
2023/02/05 02:58:53;;;;;;;1.17;0.90;;;15.90;63.00;;;;;;5032096;28;20053;-73
2023/02/05 03:01:22;;;;;;;1.63;0.80;;;15.90;63.10;;;;;;5032483;28;20384;-75
2023/02/05 03:03:57;;;;;;;1.33;0.60;;;16.00;63.10;;;;;;5031800;28;20385;-75
2023/02/05 03:06:24;;;;;;;1.05;0.57;;;16.00;63.10;;;;;;5032126;28;20021;-76
2023/02/05 03:08:58;;;;;;;0.80;0.60;;;15.90;63.00;;;;;;5031808;28;20029;-75
2023/02/05 03:11:25;;;;;;;1.42;0.65;;;15.90;63.00;;;;;;5032108;28;20060;-75
2023/02/05 03:13:51;;;;;;;2.47;1.10;;;15.90;63.00;;;;;;5031925;28;20024;-76
2023/02/05 03:16:18;;;;;;;0.80;0.80;;;15.90;63.00;;;;;;5031970;28;20104;-76
2023/02/05 03:18:45;;;;;;;0.98;0.80;;;15.90;63.00;;;;;;5031964;28;20080;-75
2023/02/05 03:21:24;;;;;;;1.58;0.60;;;15.90;63.60;;;;;;5031970;28;20384;-75
2023/02/05 03:23:50;;;;;;;0.57;0.50;;;15.90;62.90;;;;;;5031935;28;20030;-76
2023/02/05 03:26:31;;;;;;;1.27;0.60;;;15.90;62.90;;;;;;5031867;28;20206;-75
2023/02/05 03:29:02;;;;;;;1.58;0.68;;;15.90;62.90;;;;;;5031786;28;20025;-75
2023/02/05 03:31:40;;;;;;;0.50;0.45;;;15.90;62.90;;;;;;5014207;28;20029;-75
2023/02/05 03:34:05;;;;;;;1.35;0.50;;;15.90;62.90;;;;;;5031813;28;20105;-75
2023/02/05 03:36:45;;;;;;;1.75;0.60;;;15.90;62.90;;;;;;5032108;28;20063;-75
2023/02/05 03:39:42;;;;;;;0.68;0.60;;;15.90;62.90;;;;;;5031894;28;20026;-75
2023/02/05 03:42:32;;;;;;;1.10;0.60;;;15.90;62.90;;;;;;5031055;28;20037;-75
2023/02/05 03:45:13;;;;;;;1.65;0.65;;;15.90;62.90;;;;;;5031694;28;20053;-75
2023/02/05 03:47:57;;;;;;;;;;;15.90;62.90;;;;;;5032134;28;20105;-75
2023/02/05 03:50:53;;;;;;;0.93;0.52;;;15.90;62.80;;;;;;5031827;28;19959;-75
2023/02/05 03:53:27;;;;;;;0.60;0.57;;;15.90;62.90;;;;;;5031644;28;20027;-75
2023/02/05 03:56:10;;;;;;;1.15;0.60;;;15.90;62.90;;;;;;5031622;28;20057;-75
2023/02/05 03:58:45;;;;;;;1.02;0.90;;;15.90;62.90;;;;;;5033963;28;20117;-73
2023/02/05 04:01:12;;;;;;;0.73;0.50;;;15.90;62.90;;;;;;5017333;28;20021;-73
2023/02/05 04:03:37;;;;;;;0.82;0.70;;;15.90;62.90;;;;;;5017040;28;20080;-73
2023/02/05 04:06:04;;;;;;;0.57;0.55;;;15.90;62.90;;;;;;5034924;28;20021;-73
2023/02/05 04:08:30;;;;;;;1.13;0.70;;;15.90;62.90;;;;;;5034867;28;20036;-73
2023/02/05 04:10:55;;;;;;;0.65;0.47;;;15.90;62.90;;;;;;5034853;28;20029;-73
2023/02/05 04:13:21;;;;;;;1.80;0.80;;;15.90;62.90;;;;;;5034777;28;20021;-73
2023/02/05 04:15:48;;;;;;;0.75;0.55;;;15.80;62.80;;;;;;5034944;28;20025;-75
2023/02/05 04:18:14;;;;;;;0.52;0.50;;;15.90;62.90;;;;;;5034773;28;20472;-75
2023/02/05 04:20:40;;;;;;;1.20;0.60;;;15.90;62.90;;;;;;5034771;28;20396;-75
2023/02/05 04:23:05;;;;;;;0.63;0.43;;;15.80;62.80;;;;;;5034611;28;20064;-75
2023/02/05 04:25:31;;;;;;;0.50;0.50;;;15.80;62.80;;;;;;5034683;28;20025;-75
2023/02/05 04:27:57;;;;;;;0.95;0.55;;;15.90;62.90;;;;;;5034586;28;20021;-75
2023/02/05 04:30:22;;;;;;;1.17;0.80;;;15.80;62.80;;;;;;5034401;28;20492;-76
2023/02/05 04:32:48;;;;;;;1.20;0.73;;;15.80;62.90;;;;;;5034519;28;20468;-75
2023/02/05 04:35:13;;;;;;;0.90;0.47;;;15.80;62.90;;;;;;5034591;28;20040;-75
2023/02/05 04:37:39;;;;;;;1.88;0.95;;;15.80;62.90;;;;;;5034477;28;20026;-75
2023/02/05 04:40:05;;;;;;;1.45;0.70;;;15.90;63.00;;;;;;5034364;28;20449;-75
2023/02/05 04:42:31;;;;;;;1.85;0.85;;;15.90;62.90;;;;;;5034328;28;20025;-75
2023/02/05 04:44:56;;;;;;;1.33;0.90;;;15.80;62.90;;;;;;5034365;28;20071;-75
2023/02/05 04:47:22;;;;;;;2.55;0.70;;;15.80;62.90;;;;;;5034210;28;20096;-75
2023/02/05 04:49:48;;;;;;;0.95;0.70;;;15.80;62.90;;;;;;5034152;28;20033;-75
2023/02/05 04:52:13;;;;;;;0.68;0.50;;;15.80;62.90;;;;;;5034206;28;20033;-75
2023/02/05 04:54:39;;;;;;;2.00;0.50;;;15.80;62.90;;;;;;5034516;28;20030;-75
2023/02/05 04:57:05;;;;;;;0.63;0.63;;;15.80;62.90;;;;;;5034073;28;20068;-77
2023/02/05 04:59:30;;;;;;;0.95;0.40;;;15.80;62.90;;;;;;5034071;28;20029;-77
2023/02/05 05:01:57;;;;;;;0.63;0.60;;;15.80;62.90;;;;;;5033870;28;20071;-77
2023/02/05 05:04:23;;;;;;;1.02;0.70;;;15.80;63.00;;;;;;5033790;28;20115;-76
2023/02/05 05:06:48;;;;;;;0.80;0.70;;;15.80;62.90;;;;;;5033884;28;20089;-75
2023/02/05 05:09:14;;;;;;;0.77;0.50;;;15.80;62.90;;;;;;5032914;28;20061;-75
2023/02/05 05:11:40;;;;;;;0.75;0.60;;;15.80;62.80;;;;;;5033770;28;20025;-73
2023/02/05 05:14:05;;;;;;;1.02;0.60;;;15.80;62.90;;;;;;5033796;28;20025;-73
2023/02/05 05:16:31;;;;;;;0.70;0.50;;;15.80;62.80;;;;;;5033554;28;20096;-73
2023/02/05 05:18:57;;;;;;;0.90;0.55;;;15.80;62.80;;;;;;5033518;28;20018;-72
2023/02/05 05:21:22;;;;;;;0.60;0.60;;;15.80;62.80;;;;;;5033559;28;20025;-73
2023/02/05 05:23:48;;;;;;;0.80;0.80;;;15.80;62.80;;;;;;5033453;28;20033;-73
2023/02/05 05:26:14;;;;;;;0.75;0.60;;;15.80;62.80;;;;;;5033776;28;20060;-73
2023/02/05 05:28:39;;;;;;;1.05;0.40;;;15.80;62.70;;;;;;5033454;28;20021;-74
2023/02/05 05:31:11;;;;;;;0.75;0.50;;;15.80;62.70;;;;;;5033349;28;20098;-75
2023/02/05 05:33:37;;;;;;;1.45;0.60;;;15.80;62.70;;;;;;5033292;28;20032;-75
2023/02/05 05:36:03;;;;;;;1.45;0.50;;;15.70;62.70;;;;;;5033452;28;20033;-75
2023/02/05 05:38:29;;;;;;;1.02;0.50;;;15.70;62.60;;;;;;5033162;28;20061;-75
2023/02/05 05:43:47;;;;;;;1.65;0.70;;;15.70;62.50;;;;;;5033145;28;20036;-74
2023/02/05 05:46:39;;;;;;;2.17;0.63;;;15.70;62.40;;;;;;5033408;28;20393;-75
2023/02/05 05:49:05;;;;;;;1.30;0.70;;;15.70;63.10;;;;;;5030303;28;20045;-75
2023/02/05 05:51:32;;;;;;;1.25;0.70;;;15.70;62.40;;;;;;5032873;28;20408;-75
2023/02/05 05:53:58;;;;;;;3.33;0.70;;;15.70;62.30;;;;;;5033193;28;20391;-75
2023/02/05 05:56:24;;;;;;;3.63;0.80;;;15.70;62.30;;;;;;5033228;28;20092;-75
2023/02/05 05:58:50;;;;;;;3.30;0.90;;;15.70;62.20;;;;;;5033090;28;20072;-75
2023/02/05 06:01:19;;;;;;;3.17;0.60;;;15.70;62.30;;;;;;5033170;28;20380;-75
2023/02/05 06:03:44;;;;;;;3.00;0.73;;;15.70;62.20;;;;;;5032492;28;20041;-75
2023/02/05 06:06:11;;;;;;;2.78;0.63;;;15.70;62.00;;;;;;5015044;28;20502;-72
2023/02/05 06:08:37;;;;;;;4.38;0.77;;;15.70;62.20;;;;;;5032771;28;20034;-73
2023/02/05 06:11:02;;;;;;;1.35;0.65;;;15.60;62.00;;;;;;5032720;28;20554;-73
2023/02/05 06:13:28;;;;;;;2.80;0.85;;;15.60;61.80;;;;;;5032607;28;20051;-72
2023/02/05 06:15:54;;;;;;;3.83;1.20;;;15.60;62.10;;;;;;5032585;28;20397;-73
2023/02/05 06:18:20;;;;;;;1.63;0.65;;;15.60;62.10;;;;;;5032590;28;20033;-73
2023/02/05 06:20:46;;;;;;;3.42;0.65;;;15.60;62.00;;;;;;5032538;28;20031;-72
2023/02/05 06:23:12;;;;;;;1.90;0.90;;;15.60;62.00;;;;;;5032562;28;20029;-73
2023/02/05 06:25:37;;;;;;;3.08;0.90;;;15.60;62.00;;;;;;5032498;28;20029;-72
2023/02/05 06:28:03;;;;;;;3.50;1.05;;;15.60;62.00;;;;;;5032393;28;20503;-72
2023/02/05 06:30:29;;;;;;;2.25;0.80;;;15.60;62.00;;;;;;5032307;28;20033;-74
2023/02/05 06:32:55;;;;;;;1.73;0.60;;;15.60;62.00;;;;;;5032235;28;20365;-73
2023/02/05 06:35:20;;;;;;;0.90;0.50;;;15.60;62.00;;;;;;5032337;28;20056;-73
2023/02/05 06:37:46;;;;;;;2.10;0.73;;;15.60;62.00;;;;;;5032153;28;20109;-73
2023/02/05 06:40:14;;;;;;;1.77;0.85;;;15.60;62.10;;;;;;5032294;28;20125;-73
2023/02/05 06:42:40;;;;;;;2.03;0.65;;;15.60;62.00;;;;;;5032293;28;20530;-73
2023/02/05 06:45:06;;;;;;;0.90;0.50;;;15.60;62.00;;;;;;5032488;28;20029;-72
2023/02/05 06:47:31;;;;;;;2.00;0.52;;;15.60;62.10;;;;;;5032179;28;20030;-73
2023/02/05 06:49:57;;;;;;;1.25;0.65;;;15.60;62.10;;;;;;5032065;28;20065;-73
2023/02/05 06:52:22;;;;;;;1.42;0.47;;;15.60;62.10;;;;;;5032139;28;20040;-73
2023/02/05 06:54:48;;;;;;;2.53;0.95;;;15.60;62.10;;;;;;5032318;28;20159;-72
2023/02/05 06:57:14;;;;;;;2.67;0.57;;;15.60;62.00;;;;;;5032161;28;20018;-73
2023/02/05 06:59:39;;;;;;;2.00;0.75;;;15.60;62.10;;;;;;5032132;28;20021;-72
2023/02/05 07:02:05;;;;;;;1.02;0.57;;;15.60;62.00;;;;;;5032037;28;20060;-73
2023/02/05 07:04:31;;;;;;;2.35;0.50;;;15.60;62.00;;;;;;5032076;28;20037;-73
2023/02/05 07:06:57;;;;;;;1.88;0.90;;;15.60;62.00;;;;;;5014217;28;20049;-72
2023/02/05 07:09:23;;;;;;;2.70;0.80;;;15.50;61.70;;;;;;5031873;28;20103;-73
2023/02/05 07:11:49;;;;;;;4.68;1.02;;;15.50;61.90;;;;;;5031893;28;20028;-73
2023/02/05 07:14:14;;;;;;;1.40;0.60;;;15.50;61.90;;;;;;5031980;28;20104;-73
2023/02/05 07:16:40;;;;;;;1.15;0.40;;;15.50;62.00;;;;;;5031928;28;20025;-72
2023/02/05 07:19:06;;;;;;;3.92;0.77;;;15.50;61.90;;;;;;5031871;28;20491;-74
2023/02/05 07:21:31;;;;;;;1.45;0.50;;;15.50;61.90;;;;;;5032052;28;20033;-75
2023/02/05 07:23:57;;;;;;;3.40;0.77;;;15.50;61.90;;;;;;5031874;28;20064;-75
2023/02/05 07:26:22;;;;;;;3.28;0.90;;;15.50;62.00;;;;;;5031851;28;20018;-75
2023/02/05 07:28:48;;;;;;;2.58;0.95;;;15.50;62.00;;;;;;5031774;28;20061;-75
2023/02/05 07:31:17;;;;;;;2.45;0.80;;;15.50;62.00;;;;;;5031795;28;20446;-75
2023/02/05 07:33:44;;;;;;;2.55;0.60;;;15.50;61.90;;;;;;5016706;28;20017;-75
2023/02/05 07:36:12;;;;;;;2.35;0.88;;;15.50;61.90;;;;;;5035646;28;20372;-75
2023/02/05 07:38:38;;;;;;;2.45;1.00;;;15.50;61.90;;;;;;5035599;28;20022;-72
2023/02/05 07:41:05;;;;;;;2.55;0.80;;;15.50;61.90;;;;;;5035480;28;20476;-72
2023/02/05 07:43:31;;;;;;;3.30;0.98;;;15.50;61.90;;;;;;5035412;28;20026;-72
2023/02/05 07:45:57;;;;;;;2.42;0.88;;;15.50;61.80;;;;;;5035298;28;20053;-73
2023/02/05 07:48:23;;;;;;;3.80;0.88;;;15.50;61.90;;;;;;5035313;28;20025;-72
2023/02/05 07:50:49;;;;;;;2.42;0.50;;;15.50;62.60;;;;;;5035233;28;20033;-76
2023/02/05 07:53:14;;;;;;;3.30;0.70;;;15.50;61.90;;;;;;5035201;28;20572;-73
2023/02/05 07:55:40;;;;;;;2.47;0.80;;;15.50;61.70;;;;;;5035507;28;20037;-74
2023/02/05 07:58:05;;;;;;;2.42;0.90;;;15.50;61.70;;;;;;5035349;28;20030;-72
2023/02/05 08:00:31;;;;;;;1.38;0.57;;;15.50;61.70;;;;;;5035132;28;20108;-72
2023/02/05 08:02:57;;;;;;;2.65;0.70;;;15.50;61.70;;;;;;5034772;28;20053;-73
2023/02/05 08:05:22;;;;;;;2.20;0.63;;;15.50;61.70;;;;;;5034986;28;20025;-73
2023/02/05 08:07:48;;;;;;;3.88;0.70;;;15.50;61.70;;;;;;5035002;28;20024;-74
2023/02/05 08:10:14;;;;;;;4.50;1.02;;;15.50;61.70;;;;;;5017028;28;20038;-72
2023/02/05 08:12:40;;;;;;;3.20;1.13;;;15.50;61.40;;;;;;5035002;28;20045;-73
2023/02/05 08:15:06;;;;;;;7.68;1.60;;;15.50;61.40;;;;;;5035209;28;20049;-74
2023/02/05 08:17:31;;;;;;;4.60;1.10;;;15.50;61.40;;;;;;5034875;28;20026;-74
2023/02/05 08:20:01;;;;;;;4.45;1.10;;;15.50;61.30;;;;;;5034933;28;20142;-74
2023/02/05 08:22:27;;;;;;;3.63;0.77;;;15.50;61.30;;;;;;5034907;28;20026;-73
2023/02/05 08:24:53;;;;;;;5.35;1.35;;;15.50;61.30;;;;;;5034805;28;20026;-74
2023/02/05 08:27:18;;;;;;;2.53;0.82;;;15.50;61.30;;;;;;5034847;28;20018;-72
2023/02/05 08:29:47;;;;;;;3.47;1.02;;;15.50;61.30;;;;;;5034562;28;20037;-76
2023/02/05 08:32:12;;;;;;;4.95;1.38;;;15.50;61.40;;;;;;5034509;28;20021;-73
2023/02/05 08:34:38;;;;;;;3.67;1.15;;;15.50;61.30;;;;;;5034623;28;20049;-72
2023/02/05 08:37:03;;;;;;;3.42;1.00;;;15.50;61.20;;;;;;5034497;28;20064;-74
2023/02/05 08:39:29;;;;;;;6.32;1.70;;;15.50;61.10;;;;;;5034716;28;20025;-75
2023/02/05 08:41:54;;;;;;;3.67;1.27;;;15.50;61.10;;;;;;5034661;28;20032;-76
2023/02/05 08:44:20;;;;;;;9.50;1.58;;;15.50;61.10;;;;;;5034177;28;20021;-75
2023/02/05 08:46:46;;;;;;;4.82;1.20;;;15.50;61.80;;;;;;5034280;28;20060;-73
2023/02/05 08:49:12;;;;;;;5.40;1.17;;;15.50;61.00;;;;;;5034224;28;20056;-74
2023/02/05 08:51:38;;;;;;;6.30;1.77;;;15.50;61.80;;;;;;5034603;28;20140;-73
2023/02/05 08:54:05;;;;;;;9.50;1.98;;;15.50;61.00;;;;;;5034470;28;20479;-72
2023/02/05 08:56:31;;;;;;;4.25;1.40;;;15.50;60.90;;;;;;5034369;28;20407;-73
2023/02/05 08:58:57;;;;;;;7.70;1.65;;;15.50;61.00;;;;;;5033980;28;20503;-72
2023/02/05 09:01:23;;;;;;;6.00;1.70;;;15.50;68.80;;;;;;5033889;28;20033;-73
2023/02/05 09:03:49;;;;;;;6.70;1.63;;;15.40;60.90;;;;;;5033781;28;20104;-72
2023/02/05 09:06:15;;;;;;;6.50;2.08;;;15.50;60.90;;;;;;5034185;28;20085;-72
2023/02/05 09:08:41;;;;;;;10.40;2.17;;;15.50;60.70;;;;;;5034109;28;20032;-72
2023/02/05 09:11:07;;;;;;;8.02;2.33;;;15.50;60.80;;;;;;5034096;28;20053;-75
2023/02/05 09:13:33;;;;;;;7.68;1.75;;;15.40;60.90;;;;;;5033998;28;20092;-75
2023/02/05 09:15:59;;;;;;;8.68;1.75;;;15.40;60.90;;;;;;5033984;28;20079;-74
2023/02/05 09:18:25;;;;;;;9.23;2.15;;;15.40;60.90;;;;;;5033900;28;20030;-75
2023/02/05 09:20:53;;;;;;;8.57;2.58;;;15.40;61.00;;;;;;5033910;28;20435;-75
2023/02/05 09:23:19;;;;;;;6.80;1.88;;;15.50;60.80;;;;;;5033798;28;20022;-74
2023/02/05 09:25:45;;;;;;;10.82;2.70;;;15.40;60.80;;;;;;5033838;28;20049;-74
2023/02/05 09:28:13;;;;;;;11.18;2.42;;;15.40;60.50;;;;;;5033725;28;20025;-72
2023/02/05 09:30:42;;;;;;;10.43;2.38;;;15.50;60.60;;;;;;5033627;28;20057;-72
2023/02/05 09:33:10;;;;;;;9.32;1.95;;;15.50;60.60;;;;;;5033645;28;20017;-72
2023/02/05 09:35:36;;;;;;;9.13;2.60;;;15.50;60.50;;;;;;5033334;28;20108;-72
2023/02/05 09:38:02;;;;;;;9.40;2.50;;;15.50;60.50;;;;;;5033616;28;20091;-72
2023/02/05 09:40:34;;;;;;;14.23;2.67;;;15.40;60.50;;;;;;5033465;28;20018;-73
2023/02/05 09:43:27;;;;;;;9.38;2.30;;;15.40;60.70;;;;;;5033542;28;20484;-72
2023/02/05 09:46:02;;;;;;;5.88;2.25;;;15.50;60.70;;;;;;5033563;28;20116;-72
2023/02/05 09:48:38;;;;;;;11.93;2.28;;;15.40;60.60;;;;;;5033402;28;20029;-72
2023/02/05 09:51:07;;;;;;;9.38;2.45;;;15.50;60.60;;;;;;5033305;28;20435;-72
2023/02/05 09:53:39;;;;;;;9.07;2.47;;;15.50;60.50;;;;;;5033309;28;20028;-72
2023/02/05 09:56:08;;;;;;;13.43;2.90;;;15.50;60.40;;;;;;5032585;28;20025;-72
2023/02/05 09:58:38;;;;;;;11.27;2.72;;;15.50;60.60;;;;;;5033057;28;20021;-72
2023/02/05 10:01:11;;;;;;;7.32;2.20;;;15.50;60.50;;;;;;5032841;28;20017;-71
2023/02/05 10:03:45;;;;;;;11.02;2.78;;;15.40;60.40;;;;;;5032649;28;20045;-72
2023/02/05 10:06:20;;;;;;;8.25;2.35;;;15.50;60.50;;;;;;5033128;28;20052;-72
2023/02/05 10:09:07;;;;;;;9.57;3.00;;;15.50;61.10;;;;;;5032945;28;20044;-72
2023/02/05 10:11:42;;;;;;;11.57;2.85;;;15.50;60.40;;;;;;5033021;28;20491;-71
2023/02/05 10:14:18;;;;;;;11.70;3.03;;;15.50;60.20;;;;;;5033008;28;20021;-72
2023/02/05 10:16:56;;;;;;;16.23;2.63;;;15.50;60.30;;;;;;5032422;28;20025;-72
2023/02/05 10:19:33;;;;;;;14.68;3.17;;;15.50;60.20;;;;;;5032858;28;20026;-73
2023/02/05 10:22:24;;;;;;;12.02;2.85;;;15.50;60.40;;;;;;5033688;28;20029;-72
2023/02/05 10:25:04;;;;;;;10.68;3.03;;;15.50;60.50;;;;;;5033207;28;20053;-72
2023/02/05 10:27:45;;;;;;;11.05;2.35;;;15.50;60.60;;;;;;5032752;28;20021;-72
2023/02/05 10:30:20;;;;;;;9.18;2.50;;;15.50;60.60;;;;;;5032344;28;20099;-72
2023/02/05 10:33:05;;;;;;;9.80;3.38;;;15.50;60.60;;;;;;5032532;28;20389;-72
2023/02/05 10:35:43;;;;;;;10.23;2.70;;;15.50;60.60;;;;;;5032236;28;20029;-71
2023/02/05 10:38:48;;;;;;;9.68;2.72;;;15.50;60.80;;;;;;5032320;28;20033;-74
2023/02/05 10:41:43;;;;;;;11.30;2.72;;;15.50;60.80;;;;;;5032615;28;20030;-74
2023/02/05 10:44:15;;;;;;;8.35;2.30;;;15.50;60.80;;;;;;5032257;28;20022;-78
2023/02/05 10:46:42;;;;;;;10.13;2.67;;;15.50;60.90;;;;;;5032163;28;20041;-74
2023/02/05 10:49:23;;;;;;;14.15;3.35;;;15.50;60.80;;;;;;5032141;28;20044;-73
2023/02/05 10:51:49;;;;;;;10.27;2.60;;;15.50;60.80;;;;;;5032412;28;20087;-73
2023/02/05 10:54:32;;;;;;;8.43;2.25;;;15.50;60.80;;;;;;5032370;28;20024;-73
2023/02/05 10:57:00;;;;;;;10.50;2.80;;;15.50;60.80;;;;;;5032281;28;20037;-73
2023/02/05 10:59:27;;;;;;;10.35;2.95;;;15.50;60.80;;;;;;5032383;28;20044;-73
2023/02/05 11:01:56;;;;;;;9.65;2.88;;;15.50;60.80;;;;;;5032273;28;20180;-73
2023/02/05 11:04:47;;;;;;;13.60;3.08;;;15.50;60.90;;;;;;5031921;28;20045;-73
2023/02/05 11:07:28;;;;;;;11.68;2.70;;;15.50;60.80;;;;;;5032661;28;20120;-73
2023/02/05 11:09:56;;;;;;;12.00;2.90;;;15.50;60.80;;;;;;5036175;28;20036;-73
2023/02/05 11:12:29;;;;;;;15.57;3.10;;;15.50;60.70;;;;;;5036305;28;20018;-74
2023/02/05 11:14:59;;;;;;;14.02;2.83;;;15.50;60.80;;;;;;5036260;28;20405;-73
2023/02/05 11:17:32;;;;;;;8.57;2.73;;;15.50;60.60;;;;;;5036044;28;20025;-73
2023/02/05 11:20:20;;;;;;;8.82;2.63;;;15.50;60.60;;;;;;5035908;28;20036;-73
2023/02/05 11:22:46;;;;;;;10.27;2.90;;;15.50;60.60;;;;;;5035847;28;20531;-72
2023/02/05 11:25:11;;;;;;;11.23;2.63;;;15.60;60.60;;;;;;5017886;28;20021;-72
2023/02/05 11:27:38;;;;;;;12.98;2.85;;;15.50;60.50;;;;;;5035788;28;20033;-72
2023/02/05 11:30:26;;;;;;;9.07;2.70;;;15.60;60.40;;;;;;5035543;28;20435;-72
2023/02/05 11:32:53;;;;;;;12.32;3.08;;;15.70;60.30;;;;;;5035689;28;20105;-74
2023/02/05 11:35:18;;;;;;;10.75;2.47;;;15.60;60.10;;;;;;5035606;28;20029;-77
2023/02/05 11:37:46;;;;;;;8.90;2.40;;;15.70;60.00;;;;;;5036001;28;20025;-77
2023/02/05 11:40:32;;;;;;;10.75;2.67;;;15.70;60.00;;;;;;5035531;28;20046;-75
2023/02/05 11:43:05;;;;;;;10.73;2.42;;;15.60;60.10;;;;;;5035270;28;20033;-71
2023/02/05 11:45:34;;;;;;;11.18;2.72;;;15.70;60.00;;;;;;5035367;28;20032;-75
2023/02/05 11:48:04;;;;;;;12.57;2.35;;;15.70;60.10;;;;;;5035299;28;20025;-72
2023/02/05 11:50:31;;;;;;;14.00;3.33;;;15.70;60.00;;;;;;5035224;28;20034;-76
2023/02/05 11:53:15;;;;;;;10.90;2.97;;;15.70;59.80;;;;;;5035530;28;20018;-72
2023/02/05 11:55:42;;;;;;;11.52;2.58;;;15.70;59.60;;;;;;5035379;28;20028;-73
2023/02/05 11:58:27;;;;;;;12.93;2.90;;;15.90;59.50;;;;;;5035195;28;20029;-74
2023/02/05 12:01:00;;;;;;;12.95;3.20;;;15.90;59.20;;;;;;5035107;28;20034;-73
2023/02/05 12:03:30;;;;;;;12.20;3.45;;;16.00;58.70;;;;;;5035184;28;20117;-74
2023/02/05 12:06:03;;;;;;;;;;;16.00;58.60;;;;;;5035826;28;20053;-73
2023/02/05 12:08:43;;;;;;;11.35;2.47;;;16.10;58.60;;;;;;5035141;28;20023;-72
2023/02/05 12:11:21;;;;;;;9.60;2.00;;;16.10;57.80;;;;;;5035224;28;20040;-75
2023/02/05 12:13:55;;;;;;;13.32;3.00;;;16.20;58.00;;;;;;5035082;28;20364;-74
2023/02/05 12:16:45;;;;;;;10.82;3.00;;;16.20;58.10;;;;;;5034860;28;20025;-76
2023/02/05 12:19:14;;;;;;;8.17;2.50;;;16.10;58.10;;;;;;5034488;28;20017;-74
2023/02/05 12:21:49;;;;;;;6.90;2.30;;;16.30;57.80;;;;;;5034814;28;20622;-73
2023/02/05 12:24:27;;;;;;;11.90;3.35;;;16.30;57.50;;;;;;5034713;28;20376;-73
2023/02/05 12:27:03;;;;;;;13.80;3.00;;;16.30;57.50;;;;;;5035032;28;20078;-73
2023/02/05 12:30:08;;;;;;;10.07;2.58;;;16.40;57.60;;;;;;5034909;28;20032;-73
2023/02/05 12:32:59;;;;;;;7.18;2.50;;;16.40;57.00;;;;;;5034930;28;20033;-73
2023/02/05 12:35:28;;;;;;;12.20;3.05;;;16.60;57.30;;;;;;5006921;28;20064;-72
2023/02/05 12:37:59;;;;;;;10.02;2.80;;;16.50;57.00;;;;;;5034751;28;20033;-73
2023/02/05 12:40:50;;;;;;;10.40;2.35;;;16.50;56.90;;;;;;5034338;28;20088;-73
2023/02/05 12:43:38;;;;;;;14.00;2.95;;;16.60;56.80;;;;;;5034320;28;20395;-72
2023/02/05 12:46:39;;;;;;;9.00;2.42;;;16.60;56.80;;;;;;5034388;28;20395;-73
2023/02/05 12:49:14;;;;;;;10.57;3.38;;;16.70;57.00;;;;;;5015082;28;20033;-74
2023/02/05 12:52:01;;;;;;;8.02;2.10;;;16.80;56.10;;;;;;5034242;28;20064;-75
2023/02/05 12:54:51;;;;;;;10.95;2.67;;;16.90;56.40;;;;;;5034020;28;20026;-74
2023/02/05 12:57:42;;;;;;;8.63;2.53;;;16.90;55.90;;;;;;5034040;28;20033;-73
2023/02/05 13:00:43;;;;;;;13.75;2.50;;;17.00;55.60;;;;;;5034212;28;20025;-73
2023/02/05 13:03:18;;;;;;;10.25;2.85;;;17.10;55.30;;;;;;4982282;28;20133;-74
2023/02/05 13:06:02;;;;;;;8.20;2.20;;;17.10;55.60;;;;;;5033280;28;20439;-74